createdAt,value
2017-11-12T00:00:18.826Z,17.27
2017-11-12T00:01:21.478Z,10.95
2017-11-12T00:02:23.939Z,11.52
2017-11-12T00:03:27.202Z,12.90
2017-11-12T00:04:30.435Z,11.93
2017-11-12T00:05:33.682Z,13.90
2017-11-12T00:06:36.935Z,15.63
2017-11-12T00:07:40.181Z,12.68
2017-11-12T00:08:42.663Z,13.90
2017-11-12T00:09:45.148Z,10.45
2017-11-12T00:10:47.621Z,11.95
2017-11-12T00:11:50.852Z,13.73
2017-11-12T00:12:53.318Z,11.60
2017-11-12T00:13:55.852Z,11.82
2017-11-12T00:14:58.335Z,13.50
2017-11-12T00:16:00.787Z,16.75
2017-11-12T00:17:03.279Z,10.98
2017-11-12T00:18:05.756Z,12.88
2017-11-12T00:19:08.295Z,13.88
2017-11-12T00:20:10.784Z,12.57
2017-11-12T00:21:14.029Z,12.50
2017-11-12T00:22:17.308Z,12.27
2017-11-12T00:23:19.804Z,15.02
2017-11-12T00:24:23.031Z,10.85
2017-11-12T00:25:25.487Z,10.85
2017-11-12T00:26:27.948Z,9.88
2017-11-12T00:27:30.411Z,11.55
2017-11-12T00:28:33.676Z,10.20
2017-11-12T00:29:36.153Z,10.52
2017-11-12T00:30:38.611Z,11.75
2017-11-12T00:31:41.070Z,10.85
2017-11-12T00:32:43.807Z,13.55
2017-11-12T00:33:46.307Z,15.60
2017-11-12T00:34:48.799Z,11.60
2017-11-12T00:35:52.024Z,12.88
2017-11-12T00:36:55.260Z,14.90
2017-11-12T00:37:57.724Z,14.52
2017-11-12T00:39:00.963Z,11.10
2017-11-12T00:40:04.215Z,10.10
2017-11-12T00:41:06.698Z,12.10
2017-11-12T00:42:09.239Z,10.57
2017-11-12T00:43:12.476Z,12.75
2017-11-12T00:44:14.960Z,10.38
2017-11-12T00:45:17.541Z,11.50
2017-11-12T00:46:20.839Z,16.75
2017-11-12T00:47:23.420Z,12.02
2017-11-12T00:48:26.654Z,17.37
2017-11-12T00:49:29.895Z,12.32
2017-11-12T00:50:33.167Z,19.02
2017-11-12T00:51:35.726Z,12.07
2017-11-12T00:52:38.211Z,9.52
2017-11-12T00:53:40.682Z,12.57
2017-11-12T00:54:43.150Z,11.70
2017-11-12T00:55:46.384Z,12.43
2017-11-12T00:56:49.615Z,11.70
2017-11-12T00:57:52.082Z,12.25
2017-11-12T00:58:54.557Z,11.12
2017-11-12T00:59:57.157Z,12.45
2017-11-12T01:00:59.778Z,11.55
2017-11-12T01:02:02.296Z,12.88
2017-11-12T01:03:04.754Z,12.88
2017-11-12T01:04:08.765Z,12.25
2017-11-12T01:05:11.295Z,9.50
2017-11-12T01:06:13.775Z,12.20
2017-11-12T01:07:16.345Z,12.23
2017-11-12T01:08:18.825Z,12.27
2017-11-12T01:09:22.087Z,10.90
2017-11-12T01:10:25.315Z,13.48
2017-11-12T01:11:27.782Z,10.48
2017-11-12T01:12:30.254Z,11.27
2017-11-12T01:13:32.820Z,12.10
2017-11-12T01:14:36.123Z,12.70
2017-11-12T01:15:38.643Z,10.18
2017-11-12T01:16:41.139Z,10.57
2017-11-12T01:17:43.618Z,11.10
2017-11-12T01:18:46.836Z,14.05
2017-11-12T01:19:50.921Z,11.70
2017-11-12T01:20:54.320Z,15.27
2017-11-12T01:21:56.807Z,14.77
2017-11-12T01:23:00.033Z,11.88
2017-11-12T01:24:03.298Z,11.93
2017-11-12T01:25:05.923Z,10.70
2017-11-12T01:26:09.165Z,18.92
2017-11-12T01:27:12.400Z,10.20
2017-11-12T01:28:15.707Z,12.85
2017-11-12T01:29:18.354Z,12.93
2017-11-12T01:30:20.867Z,13.35
2017-11-12T01:31:23.319Z,11.93
2017-11-12T01:32:26.580Z,11.77
2017-11-12T01:33:29.103Z,10.77
2017-11-12T01:34:31.612Z,13.70
2017-11-12T01:35:34.871Z,11.95
2017-11-12T01:36:37.371Z,10.75
2017-11-12T01:37:40.608Z,15.48
2017-11-12T01:38:44.613Z,14.57
2017-11-12T01:39:47.163Z,11.65
2017-11-12T01:40:49.626Z,10.65
2017-11-12T01:41:53.184Z,9.02
2017-11-12T01:42:56.475Z,13.05
2017-11-12T01:43:58.976Z,13.05
2017-11-12T01:45:01.450Z,9.82
2017-11-12T01:46:03.967Z,16.98
2017-11-12T01:47:06.550Z,12.23
2017-11-12T01:48:09.061Z,10.88
2017-11-12T01:49:12.769Z,16.80
2017-11-12T01:50:15.257Z,12.60
2017-11-12T01:51:17.808Z,11.38
2017-11-12T01:52:20.276Z,15.13
2017-11-12T01:53:23.549Z,12.88
2017-11-12T01:54:26.059Z,12.02
2017-11-12T01:55:28.649Z,15.63
2017-11-12T01:56:31.139Z,16.42
2017-11-12T01:57:33.656Z,17.30
2017-11-12T01:58:36.164Z,12.60
2017-11-12T01:59:39.537Z,10.50
2017-11-12T02:00:42.043Z,12.30
2017-11-12T02:01:44.551Z,17.25
2017-11-12T02:02:47.785Z,15.02
2017-11-12T02:03:51.016Z,13.62
2017-11-12T02:04:53.547Z,15.57
2017-11-12T02:05:56.822Z,10.75
2017-11-12T02:06:59.331Z,11.12
2017-11-12T02:08:02.619Z,13.10
2017-11-12T02:09:05.088Z,16.08
2017-11-12T02:10:07.572Z,11.60
2017-11-12T02:11:10.089Z,13.18
2017-11-12T02:12:12.613Z,17.37
2017-11-12T02:13:15.082Z,11.85
2017-11-12T02:14:18.350Z,18.42
2017-11-12T02:15:21.650Z,15.88
2017-11-12T02:16:24.109Z,13.90
2017-11-12T02:17:27.373Z,13.55
2017-11-12T02:18:29.934Z,13.52
2017-11-12T02:19:32.395Z,14.55
2017-11-12T02:20:35.652Z,11.55
2017-11-12T02:21:38.960Z,14.95
2017-11-12T02:22:41.422Z,14.85
2017-11-12T02:23:44.729Z,10.23
2017-11-12T02:24:47.251Z,12.20
2017-11-12T02:25:49.726Z,14.98
2017-11-12T02:26:52.233Z,15.70
2017-11-12T02:27:54.697Z,15.93
2017-11-12T02:28:57.170Z,11.88
2017-11-12T02:29:59.648Z,10.80
2017-11-12T02:31:02.112Z,13.15
2017-11-12T02:32:04.563Z,14.52
2017-11-12T02:33:07.097Z,11.73
2017-11-12T02:34:10.360Z,19.48
2017-11-12T02:35:12.860Z,13.32
2017-11-12T02:36:16.116Z,11.30
2017-11-12T02:37:18.579Z,15.57
2017-11-12T02:38:21.044Z,15.18
2017-11-12T02:39:24.274Z,13.25
2017-11-12T02:40:27.548Z,12.37
2017-11-12T02:41:30.033Z,17.33
2017-11-12T02:42:33.267Z,12.85
2017-11-12T02:43:35.731Z,15.57
2017-11-12T02:44:39.035Z,16.00
2017-11-12T02:45:42.243Z,16.58
2017-11-12T02:46:44.707Z,18.42
2017-11-12T02:47:47.202Z,12.48
2017-11-12T02:48:49.674Z,18.50
2017-11-12T02:49:52.955Z,15.75
2017-11-12T02:50:55.415Z,13.90
2017-11-12T02:51:57.884Z,13.50
2017-11-12T02:53:01.126Z,13.80
2017-11-12T02:54:03.628Z,18.67
2017-11-12T02:55:06.091Z,14.90
2017-11-12T02:56:08.551Z,14.68
2017-11-12T02:57:11.018Z,17.90
2017-11-12T02:58:14.251Z,14.80
2017-11-12T02:59:17.502Z,15.18
2017-11-12T03:00:20.737Z,15.32
2017-11-12T03:01:24.092Z,13.20
2017-11-12T03:02:27.314Z,14.95
2017-11-12T03:03:29.771Z,12.80
2017-11-12T03:04:33.029Z,17.23
2017-11-12T03:05:35.574Z,14.95
2017-11-12T03:06:38.070Z,13.00
2017-11-12T03:07:40.536Z,19.08
2017-11-12T03:08:43.044Z,13.62
2017-11-12T03:09:45.507Z,17.37
2017-11-12T03:10:47.975Z,15.13
2017-11-12T03:11:50.460Z,17.73
2017-11-12T03:12:52.920Z,14.57
2017-11-12T03:13:55.417Z,14.20
2017-11-12T03:14:58.656Z,18.75
2017-11-12T03:16:01.886Z,20.10
2017-11-12T03:17:04.362Z,13.52
2017-11-12T03:18:06.815Z,15.10
2017-11-12T03:19:09.271Z,23.92
2017-11-12T03:20:11.720Z,16.40
2017-11-12T03:21:14.208Z,19.45
2017-11-12T03:22:16.807Z,19.67
2017-11-12T03:23:19.283Z,17.42
2017-11-12T03:24:22.516Z,15.85
2017-11-12T03:25:25.774Z,15.68
2017-11-12T03:26:28.995Z,16.17
2017-11-12T03:27:32.254Z,19.05
2017-11-12T03:28:35.490Z,13.60
2017-11-12T03:29:38.727Z,19.33
2017-11-12T03:30:41.983Z,18.27
2017-11-12T03:31:44.530Z,19.65
2017-11-12T03:32:47.031Z,17.62
2017-11-12T03:33:50.297Z,17.50
2017-11-12T03:34:52.766Z,18.67
2017-11-12T03:35:55.241Z,17.17
2017-11-12T03:36:57.770Z,19.90
2017-11-12T03:38:00.251Z,18.90
2017-11-12T03:39:02.706Z,17.30
2017-11-12T03:40:05.171Z,20.35
2017-11-12T03:41:07.639Z,21.10
2017-11-12T03:42:10.899Z,18.00
2017-11-12T03:43:14.213Z,19.42
2017-11-12T03:44:17.480Z,22.95
2017-11-12T03:45:20.715Z,18.65
2017-11-12T03:46:23.979Z,23.87
2017-11-12T03:47:26.456Z,19.12
2017-11-12T03:48:28.924Z,21.50
2017-11-12T03:49:31.398Z,25.00
2017-11-12T03:50:34.642Z,26.05
2017-11-12T03:51:37.210Z,24.30
2017-11-12T03:52:40.424Z,27.20
2017-11-12T03:53:42.899Z,22.30
2017-11-12T03:54:45.415Z,26.65
2017-11-12T03:55:47.925Z,24.95
2017-11-12T03:56:51.264Z,22.85
2017-11-12T03:57:54.505Z,25.10
2017-11-12T03:58:57.719Z,24.12
2017-11-12T04:00:00.956Z,22.60
2017-11-12T04:01:03.432Z,23.30
2017-11-12T04:02:05.955Z,23.92
2017-11-12T04:03:08.443Z,23.17
2017-11-12T04:04:11.703Z,26.35
2017-11-12T04:05:14.919Z,23.30
2017-11-12T04:06:17.395Z,23.42
2017-11-12T04:07:19.887Z,23.35
2017-11-12T04:08:22.397Z,24.40
2017-11-12T04:09:24.861Z,23.12
2017-11-12T04:10:28.111Z,24.65
2017-11-12T04:11:30.611Z,23.10
2017-11-12T04:12:33.866Z,21.98
2017-11-12T04:13:37.233Z,28.35
2017-11-12T04:14:39.697Z,26.75
2017-11-12T04:15:42.178Z,25.08
2017-11-12T04:16:44.650Z,23.27
2017-11-12T04:17:47.127Z,23.55
2017-11-12T04:18:49.624Z,28.38
2017-11-12T04:19:52.990Z,23.10
2017-11-12T04:20:55.474Z,25.45
2017-11-12T04:21:59.451Z,24.83
2017-11-12T04:23:02.695Z,26.15
2017-11-12T04:24:05.176Z,23.12
2017-11-12T04:25:07.671Z,30.88
2017-11-12T04:26:10.148Z,23.58
2017-11-12T04:27:12.719Z,22.50
2017-11-12T04:28:15.238Z,25.33
2017-11-12T04:29:18.467Z,22.35
2017-11-12T04:30:22.508Z,25.85
2017-11-12T04:31:26.485Z,27.75
2017-11-12T04:32:28.949Z,23.12
2017-11-12T04:33:31.457Z,24.77
2017-11-12T04:34:33.935Z,26.02
2017-11-12T04:35:36.455Z,23.48
2017-11-12T04:36:38.930Z,26.60
2017-11-12T04:37:41.448Z,26.37
2017-11-12T04:38:44.689Z,26.45
2017-11-12T04:39:47.921Z,24.63
2017-11-12T04:40:51.230Z,23.95
2017-11-12T04:41:53.706Z,25.75
2017-11-12T04:42:56.187Z,28.25
2017-11-12T04:43:58.709Z,26.05
2017-11-12T04:45:01.167Z,25.15
2017-11-12T04:46:04.431Z,21.35
2017-11-12T04:47:06.905Z,22.42
2017-11-12T04:48:09.375Z,26.20
2017-11-12T04:49:11.912Z,23.08
2017-11-12T04:50:14.381Z,30.55
2017-11-12T04:51:16.884Z,24.15
2017-11-12T04:52:19.338Z,25.62
2017-11-12T04:53:21.820Z,28.05
2017-11-12T04:54:24.307Z,22.87
2017-11-12T04:55:27.539Z,24.58
2017-11-12T04:56:30.092Z,23.35
2017-11-12T04:57:32.566Z,21.15
2017-11-12T04:58:35.020Z,30.83
2017-11-12T04:59:38.277Z,28.00
2017-11-12T05:00:41.538Z,23.40
2017-11-12T05:01:44.019Z,23.40
2017-11-12T05:02:46.599Z,20.33
2017-11-12T05:03:49.082Z,23.20
2017-11-12T05:04:52.331Z,24.90
2017-11-12T05:05:55.557Z,28.90
2017-11-12T05:06:58.016Z,20.85
2017-11-12T05:08:00.536Z,27.52
2017-11-12T05:09:03.758Z,22.15
2017-11-12T05:10:07.035Z,25.62
2017-11-12T05:11:09.506Z,28.83
2017-11-12T05:12:11.989Z,26.33
2017-11-12T05:13:14.531Z,26.37
2017-11-12T05:14:17.018Z,25.08
2017-11-12T05:15:20.383Z,27.30
2017-11-12T05:16:22.950Z,23.38
2017-11-12T05:17:25.428Z,31.45
2017-11-12T05:18:27.952Z,24.23
2017-11-12T05:19:30.420Z,26.42
2017-11-12T05:20:32.922Z,20.40
2017-11-12T05:21:35.450Z,25.80
2017-11-12T05:22:37.931Z,22.70
2017-11-12T05:23:41.295Z,24.83
2017-11-12T05:24:43.773Z,26.92
2017-11-12T05:25:46.231Z,24.15
2017-11-12T05:26:49.519Z,19.95
2017-11-12T05:27:51.979Z,24.77
2017-11-12T05:28:54.489Z,24.02
2017-11-12T05:29:56.966Z,27.70
2017-11-12T05:30:59.497Z,26.58
2017-11-12T05:32:01.960Z,27.42
2017-11-12T05:33:04.443Z,26.52
2017-11-12T05:34:07.670Z,28.02
2017-11-12T05:35:10.934Z,31.98
2017-11-12T05:36:13.678Z,27.75
2017-11-12T05:37:16.155Z,24.08
2017-11-12T05:38:19.427Z,28.10
2017-11-12T05:39:22.004Z,30.42
2017-11-12T05:40:24.459Z,28.50
2017-11-12T05:41:27.726Z,24.77
2017-11-12T05:42:30.190Z,25.35
2017-11-12T05:43:34.163Z,21.50
2017-11-12T05:44:37.394Z,27.52
2017-11-12T05:45:39.863Z,24.63
2017-11-12T05:46:43.119Z,24.45
2017-11-12T05:47:45.597Z,23.52
2017-11-12T05:48:48.057Z,26.65
2017-11-12T05:49:50.523Z,28.45
2017-11-12T05:50:53.002Z,26.60
2017-11-12T05:51:56.302Z,28.80
2017-11-12T05:52:58.783Z,28.15
2017-11-12T05:54:01.261Z,26.62
2017-11-12T05:55:03.825Z,31.65
2017-11-12T05:56:07.100Z,31.15
2017-11-12T05:57:09.562Z,28.58
2017-11-12T05:58:12.043Z,26.62
2017-11-12T05:59:14.507Z,29.02
2017-11-12T06:00:16.969Z,24.87
2017-11-12T06:01:19.451Z,24.85
2017-11-12T06:02:21.924Z,26.55
2017-11-12T06:03:24.399Z,25.27
2017-11-12T06:04:27.948Z,29.73
2017-11-12T06:05:31.930Z,22.50
2017-11-12T06:06:34.413Z,29.27
2017-11-12T06:07:36.891Z,26.62
2017-11-12T06:08:40.146Z,28.25
2017-11-12T06:09:43.376Z,25.05
2017-11-12T06:10:46.630Z,25.15
2017-11-12T06:11:49.093Z,31.27
2017-11-12T06:12:51.558Z,21.33
2017-11-12T06:13:54.776Z,25.62
2017-11-12T06:14:57.272Z,27.75
2017-11-12T06:15:59.770Z,30.52
2017-11-12T06:17:02.330Z,25.35
2017-11-12T06:18:04.817Z,27.42
2017-11-12T06:19:08.073Z,25.45
2017-11-12T06:20:10.550Z,26.20
2017-11-12T06:21:13.221Z,28.58
2017-11-12T06:22:15.792Z,28.77
2017-11-12T06:23:18.273Z,26.62
2017-11-12T06:24:20.744Z,25.60
2017-11-12T06:25:23.330Z,27.55
2017-11-12T06:26:25.815Z,30.02
2017-11-12T06:27:29.055Z,21.77
2017-11-12T06:28:31.528Z,28.73
2017-11-12T06:29:34.010Z,29.30
2017-11-12T06:30:36.474Z,30.55
2017-11-12T06:31:38.951Z,23.58
2017-11-12T06:32:41.444Z,25.02
2017-11-12T06:33:43.944Z,23.12
2017-11-12T06:34:47.281Z,24.23
2017-11-12T06:35:49.775Z,25.12
2017-11-12T06:36:52.342Z,26.35
2017-11-12T06:37:54.822Z,34.90
2017-11-12T06:38:57.335Z,31.77
2017-11-12T06:39:59.847Z,31.83
2017-11-12T06:41:02.309Z,23.58
2017-11-12T06:42:05.569Z,25.92
2017-11-12T06:43:08.790Z,30.35
2017-11-12T06:44:12.018Z,32.03
2017-11-12T06:45:14.583Z,24.55
2017-11-12T06:46:17.043Z,24.92
2017-11-12T06:47:19.507Z,29.05
2017-11-12T06:48:21.977Z,31.30
2017-11-12T06:49:24.451Z,29.45
2017-11-12T06:50:26.952Z,29.40
2017-11-12T06:51:29.414Z,24.65
2017-11-12T06:52:31.886Z,29.80
2017-11-12T06:53:34.338Z,29.02
2017-11-12T06:54:36.826Z,25.42
2017-11-12T06:55:39.540Z,26.08
2017-11-12T06:56:42.004Z,27.27
2017-11-12T06:57:44.540Z,25.80
2017-11-12T06:58:46.999Z,28.12
2017-11-12T06:59:50.230Z,26.95
2017-11-12T07:00:53.510Z,22.85
2017-11-12T07:01:55.991Z,30.58
2017-11-12T07:02:58.539Z,24.58
2017-11-12T07:04:01.798Z,28.00
2017-11-12T07:05:04.290Z,27.00
2017-11-12T07:06:06.860Z,25.23
2017-11-12T07:07:09.354Z,24.27
2017-11-12T07:08:12.612Z,25.88
2017-11-12T07:09:15.733Z,27.33
2017-11-12T07:10:18.966Z,27.77
2017-11-12T07:11:22.207Z,25.75
2017-11-12T07:12:25.100Z,30.52
2017-11-12T07:13:27.597Z,32.55
2017-11-12T07:14:30.811Z,24.35
2017-11-12T07:15:33.281Z,26.83
2017-11-12T07:16:35.775Z,24.40
2017-11-12T07:17:39.021Z,25.27
2017-11-12T07:18:42.249Z,24.27
2017-11-12T07:19:45.490Z,30.23
2017-11-12T07:20:48.715Z,31.42
2017-11-12T07:21:51.223Z,27.08
2017-11-12T07:22:53.682Z,27.17
2017-11-12T07:23:56.149Z,24.33
2017-11-12T07:24:58.606Z,27.23
2017-11-12T07:26:01.075Z,26.45
2017-11-12T07:27:04.331Z,28.05
2017-11-12T07:28:06.817Z,29.52
2017-11-12T07:29:09.291Z,29.90
2017-11-12T07:30:11.752Z,27.08
2017-11-12T07:31:14.221Z,29.15
2017-11-12T07:32:17.464Z,29.80
2017-11-12T07:33:19.939Z,25.50
2017-11-12T07:34:22.417Z,28.33
2017-11-12T07:35:24.894Z,26.70
2017-11-12T07:36:28.881Z,28.80
2017-11-12T07:37:32.120Z,24.23
2017-11-12T07:38:35.355Z,26.98
2017-11-12T07:39:39.377Z,25.62
2017-11-12T07:40:41.842Z,26.60
2017-11-12T07:41:44.310Z,28.25
2017-11-12T07:42:46.804Z,29.40
2017-11-12T07:43:50.036Z,22.92
2017-11-12T07:44:52.497Z,25.58
2017-11-12T07:45:54.964Z,23.90
2017-11-12T07:46:57.475Z,22.62
2017-11-12T07:48:00.070Z,26.30
2017-11-12T07:49:02.568Z,27.62
2017-11-12T07:50:05.862Z,31.20
2017-11-12T07:51:08.359Z,21.95
2017-11-12T07:52:10.875Z,25.48
2017-11-12T07:53:14.107Z,21.90
2017-11-12T07:54:17.335Z,23.27
2017-11-12T07:55:19.809Z,23.23
2017-11-12T07:56:22.310Z,31.67
2017-11-12T07:57:25.534Z,26.60
2017-11-12T07:58:28.775Z,25.98
2017-11-12T07:59:32.003Z,26.90
2017-11-12T08:00:34.490Z,21.65
2017-11-12T08:01:36.952Z,27.20
2017-11-12T08:02:39.417Z,20.80
2017-11-12T08:03:41.968Z,21.30
2017-11-12T08:04:44.433Z,21.67
2017-11-12T08:05:46.979Z,23.17
2017-11-12T08:06:50.955Z,23.83
2017-11-12T08:07:53.424Z,23.52
2017-11-12T08:08:55.907Z,19.62
2017-11-12T08:09:58.377Z,26.35
2017-11-12T08:11:00.865Z,24.65
2017-11-12T08:12:03.531Z,22.80
2017-11-12T08:13:06.005Z,23.80
2017-11-12T08:14:08.467Z,17.48
2017-11-12T08:15:10.958Z,24.50
2017-11-12T08:16:13.402Z,25.20
2017-11-12T08:17:15.876Z,22.70
2017-11-12T08:18:18.372Z,21.08
2017-11-12T08:19:20.863Z,19.90
2017-11-12T08:20:23.381Z,18.45
2017-11-12T08:21:25.833Z,18.70
2017-11-12T08:22:28.326Z,21.62
2017-11-12T08:23:30.821Z,27.70
2017-11-12T08:24:34.113Z,16.15
2017-11-12T08:25:36.606Z,21.83
2017-11-12T08:26:39.843Z,24.10
2017-11-12T08:27:43.208Z,22.13
2017-11-12T08:28:45.692Z,15.20
2017-11-12T08:29:48.193Z,24.45
2017-11-12T08:30:50.677Z,14.38
2017-11-12T08:31:53.940Z,18.70
2017-11-12T08:32:57.202Z,17.10
2017-11-12T08:33:59.764Z,16.58
2017-11-12T08:35:02.318Z,15.68
2017-11-12T08:36:04.823Z,22.30
2017-11-12T08:37:08.095Z,18.08
2017-11-12T08:38:10.572Z,18.10
2017-11-12T08:39:13.047Z,16.10
2017-11-12T08:40:15.598Z,14.05
2017-11-12T08:41:18.086Z,16.52
2017-11-12T08:42:20.586Z,17.77
2017-11-12T08:43:23.141Z,18.17
2017-11-12T08:44:25.629Z,22.67
2017-11-12T08:45:28.859Z,13.73
2017-11-12T08:46:31.371Z,17.37
2017-11-12T08:47:33.869Z,15.30
2017-11-12T08:48:36.347Z,18.98
2017-11-12T08:49:38.822Z,13.75
2017-11-12T08:50:41.292Z,12.05
2017-11-12T08:51:43.778Z,14.23
2017-11-12T08:52:46.259Z,16.37
2017-11-12T08:53:48.731Z,12.70
2017-11-12T08:54:51.182Z,16.90
2017-11-12T08:55:53.651Z,11.95
2017-11-12T08:56:56.911Z,20.27
2017-11-12T08:57:59.399Z,13.85
2017-11-12T08:59:01.936Z,16.85
2017-11-12T09:00:05.198Z,12.93
2017-11-12T09:01:07.726Z,19.30
2017-11-12T09:02:10.183Z,19.00
2017-11-12T09:03:12.681Z,16.55
2017-11-12T09:04:15.173Z,19.40
2017-11-12T09:05:17.628Z,16.15
2017-11-12T09:06:20.095Z,17.77
2017-11-12T09:07:22.581Z,15.88
2017-11-12T09:08:25.052Z,11.98
2017-11-12T09:09:27.512Z,15.98
2017-11-12T09:10:30.788Z,13.23
2017-11-12T09:11:33.286Z,12.48
2017-11-12T09:12:36.542Z,11.02
2017-11-12T09:13:39.006Z,12.85
2017-11-12T09:14:41.503Z,16.37
2017-11-12T09:15:43.966Z,10.13
2017-11-12T09:16:47.144Z,12.27
2017-11-12T09:17:50.382Z,13.62
2017-11-12T09:18:53.627Z,12.30
2017-11-12T09:19:56.883Z,12.40
2017-11-12T09:20:59.425Z,18.08
2017-11-12T09:22:01.895Z,17.30
2017-11-12T09:23:04.363Z,13.20
2017-11-12T09:24:06.842Z,14.38
2017-11-12T09:25:09.343Z,11.55
2017-11-12T09:26:11.823Z,15.25
2017-11-12T09:27:14.380Z,16.77
2017-11-12T09:28:16.887Z,16.98
2017-11-12T09:29:19.350Z,27.05
2017-11-12T09:30:21.851Z,17.42
2017-11-12T09:31:24.347Z,17.45
2017-11-12T09:32:26.881Z,12.50
2017-11-12T09:33:29.430Z,19.42
2017-11-12T09:34:32.599Z,11.10
2017-11-12T09:35:35.079Z,13.00
2017-11-12T09:36:37.548Z,16.65
2017-11-12T09:37:40.122Z,14.60
2017-11-12T09:38:42.578Z,15.65
2017-11-12T09:39:45.048Z,21.35
2017-11-12T09:40:48.317Z,15.85
2017-11-12T09:41:50.788Z,19.17
2017-11-12T09:42:53.270Z,11.93
2017-11-12T09:43:55.744Z,15.57
2017-11-12T09:44:58.201Z,19.40
2017-11-12T09:46:01.457Z,16.17
2017-11-12T09:47:04.036Z,16.75
2017-11-12T09:48:06.521Z,20.65
2017-11-12T09:49:08.985Z,18.55
2017-11-12T09:50:11.459Z,19.40
2017-11-12T09:51:13.972Z,18.90
2017-11-12T09:52:17.228Z,15.30
2017-11-12T09:53:19.683Z,11.32
2017-11-12T09:54:22.183Z,13.68
2017-11-12T09:55:24.651Z,13.60
2017-11-12T09:56:27.127Z,12.88
2017-11-12T09:57:29.654Z,9.13
2017-11-12T09:58:32.225Z,8.77
2017-11-12T09:59:34.707Z,12.45
2017-11-12T10:00:37.203Z,7.80
2017-11-12T10:01:40.457Z,13.13
2017-11-12T10:02:43.699Z,9.50
2017-11-12T10:03:46.948Z,12.90
2017-11-12T10:04:50.179Z,17.15
2017-11-12T10:05:53.420Z,9.43
2017-11-12T10:06:56.685Z,12.85
2017-11-12T10:07:59.135Z,14.13
2017-11-12T10:09:01.635Z,7.47
2017-11-12T10:10:04.112Z,15.25
2017-11-12T10:11:06.577Z,11.65
2017-11-12T10:12:09.118Z,13.07
2017-11-12T10:13:12.449Z,13.10
2017-11-12T10:14:14.916Z,9.65
2017-11-12T10:15:18.067Z,8.43
2017-11-12T10:16:21.348Z,10.80
2017-11-12T10:17:24.953Z,11.02
2017-11-12T10:18:27.406Z,10.15
2017-11-12T10:19:29.872Z,14.30
2017-11-12T10:20:32.359Z,13.48
2017-11-12T10:21:35.636Z,10.45
2017-11-12T10:22:38.164Z,12.63
2017-11-12T10:24:56.228Z,13.95
2017-11-12T10:25:58.695Z,13.65
2017-11-12T10:27:01.331Z,8.95
2017-11-12T10:28:03.875Z,8.88
2017-11-12T10:29:06.351Z,6.75
2017-11-12T10:30:08.880Z,7.22
2017-11-12T10:31:11.353Z,8.90
2017-11-12T10:32:13.932Z,11.65
2017-11-12T10:33:16.419Z,8.35
2017-11-12T10:34:18.930Z,11.18
2017-11-12T10:35:27.264Z,8.20
2017-11-12T10:36:30.561Z,7.35
2017-11-12T10:37:33.036Z,15.55
2017-11-12T10:38:36.278Z,7.40
2017-11-12T10:39:38.745Z,9.63
2017-11-12T10:40:41.225Z,14.40
2017-11-12T10:41:43.689Z,10.50
2017-11-12T10:42:46.164Z,7.90
2017-11-12T10:43:50.137Z,9.40
2017-11-12T10:44:52.633Z,11.80
2017-11-12T10:45:55.203Z,11.15
2017-11-12T10:46:57.703Z,9.38
2017-11-12T10:48:00.315Z,9.65
2017-11-12T10:49:02.936Z,14.10
2017-11-12T10:50:05.407Z,9.45
2017-11-12T10:51:08.868Z,9.80
2017-11-12T10:52:11.339Z,7.10
2017-11-12T10:53:13.784Z,8.50
2017-11-12T10:54:16.271Z,8.50
2017-11-12T10:55:18.744Z,11.38
2017-11-12T10:56:21.279Z,8.05
2017-11-12T10:57:24.571Z,11.68
2017-11-12T10:58:27.030Z,7.57
2017-11-12T10:59:29.586Z,11.02
2017-11-12T11:00:32.808Z,9.32
2017-11-12T11:01:36.056Z,16.23
2017-11-12T11:02:39.330Z,8.48
2017-11-12T11:03:41.818Z,14.20
2017-11-12T11:04:45.056Z,9.07
2017-11-12T11:05:48.418Z,9.85
2017-11-12T11:06:51.663Z,9.85
2017-11-12T11:07:54.916Z,12.05
2017-11-12T11:08:57.486Z,11.98
2017-11-12T11:09:59.977Z,11.20
2017-11-12T11:11:02.535Z,8.70
2017-11-12T11:12:05.818Z,6.55
2017-11-12T11:13:09.086Z,9.30
2017-11-12T11:14:11.579Z,8.07
2017-11-12T11:15:14.826Z,17.67
2017-11-12T11:16:18.617Z,7.93
2017-11-12T11:17:21.052Z,13.15
2017-11-12T11:18:23.664Z,10.15
2017-11-12T11:19:26.191Z,9.15
2017-11-12T11:20:28.663Z,10.38
2017-11-12T11:21:31.232Z,7.00
2017-11-12T11:22:33.755Z,10.77
2017-11-12T11:23:37.023Z,12.00
2017-11-12T11:24:39.613Z,9.55
2017-11-12T11:25:42.871Z,17.40
2017-11-12T11:26:45.347Z,11.93
2017-11-12T11:27:47.821Z,10.80
2017-11-12T11:28:50.322Z,12.55
2017-11-12T11:29:53.571Z,15.23
2017-11-12T11:30:56.834Z,11.90
2017-11-12T11:31:59.319Z,8.75
2017-11-12T11:33:01.818Z,9.05
2017-11-12T11:34:04.293Z,8.38
2017-11-12T11:35:07.590Z,9.57
2017-11-12T11:36:10.084Z,11.07
2017-11-12T11:37:12.548Z,11.02
2017-11-12T11:38:15.081Z,10.13
2017-11-12T11:39:17.611Z,10.40
2017-11-12T11:40:20.120Z,13.73
2017-11-12T11:41:22.580Z,10.13
2017-11-12T11:42:25.823Z,10.70
2017-11-12T11:43:29.048Z,11.32
2017-11-12T11:44:31.507Z,7.97
2017-11-12T11:45:34.032Z,15.63
2017-11-12T11:46:36.493Z,9.35
2017-11-12T11:47:38.955Z,12.32
2017-11-12T11:48:42.183Z,9.63
2017-11-12T11:49:44.749Z,11.38
2017-11-12T11:50:47.455Z,8.25
2017-11-12T11:51:50.179Z,9.15
2017-11-12T11:52:53.498Z,9.73
2017-11-12T11:53:56.888Z,12.18
2017-11-12T11:54:59.500Z,10.43
2017-11-12T11:56:02.097Z,8.18
2017-11-12T11:57:04.690Z,10.30
2017-11-12T11:58:07.297Z,12.35
2017-11-12T11:59:09.793Z,8.77
2017-11-12T12:00:12.258Z,7.70
2017-11-12T12:01:14.783Z,15.55
2017-11-12T12:02:17.273Z,10.23
2017-11-12T12:03:19.741Z,13.13
2017-11-12T12:04:22.283Z,10.20
2017-11-12T12:05:24.731Z,8.32
2017-11-12T12:06:27.225Z,16.17
2017-11-12T12:07:29.695Z,7.87
2017-11-12T12:08:32.164Z,20.50
2017-11-12T12:09:34.659Z,10.30
2017-11-12T12:10:37.913Z,13.30
2017-11-12T12:11:41.152Z,12.05
2017-11-12T12:12:44.439Z,11.63
2017-11-12T12:13:46.904Z,13.98
2017-11-12T12:14:50.153Z,12.27
2017-11-12T12:15:52.611Z,9.57
2017-11-12T12:16:55.131Z,12.15
2017-11-12T12:17:57.607Z,16.30
2017-11-12T12:19:00.055Z,9.05
2017-11-12T12:20:03.294Z,14.85
2017-11-12T12:21:06.551Z,12.93
2017-11-12T12:22:09.805Z,11.07
2017-11-12T12:23:12.265Z,9.90
2017-11-12T12:24:14.734Z,13.62
2017-11-12T12:25:18.007Z,8.88
2017-11-12T12:26:21.259Z,7.95
2017-11-12T12:27:23.731Z,14.15
2017-11-12T12:28:26.209Z,10.25
2017-11-12T12:29:28.691Z,7.87
2017-11-12T12:30:31.163Z,11.12
2017-11-12T12:31:33.616Z,10.63
2017-11-12T12:32:36.148Z,11.77
2017-11-12T12:33:38.606Z,14.35
2017-11-12T12:34:41.815Z,12.45
2017-11-12T12:35:44.312Z,9.90
2017-11-12T12:36:46.783Z,12.10
2017-11-12T12:37:50.066Z,11.43
2017-11-12T12:38:52.536Z,14.52
2017-11-12T12:39:55.812Z,10.95
2017-11-12T12:40:58.348Z,12.90
2017-11-12T12:42:00.865Z,11.10
2017-11-12T12:43:03.336Z,11.20
2017-11-12T12:44:05.824Z,10.48
2017-11-12T12:45:08.340Z,11.90
2017-11-12T12:46:10.802Z,7.28
2017-11-12T12:47:13.290Z,9.02
2017-11-12T12:48:15.760Z,11.98
2017-11-12T12:49:19.098Z,12.20
2017-11-12T12:50:21.569Z,8.25
2017-11-12T12:51:24.783Z,9.32
2017-11-12T12:52:27.258Z,8.98
2017-11-12T12:53:29.767Z,9.23
2017-11-12T12:54:33.020Z,6.85
2017-11-12T12:55:35.470Z,10.35
2017-11-12T12:56:37.996Z,9.25
2017-11-12T12:57:40.462Z,11.68
2017-11-12T12:58:43.687Z,16.48
2017-11-12T12:59:46.219Z,12.82
2017-11-12T13:00:48.670Z,11.80
2017-11-12T13:01:51.893Z,7.20
2017-11-12T13:02:54.351Z,10.05
2017-11-12T13:03:56.892Z,6.47
2017-11-12T13:04:59.449Z,7.78
2017-11-12T13:06:01.932Z,12.13
2017-11-12T13:07:04.466Z,10.85
2017-11-12T13:08:06.981Z,11.50
2017-11-12T13:09:10.226Z,8.85
2017-11-12T13:10:12.750Z,8.68
2017-11-12T13:11:15.223Z,8.48
2017-11-12T13:12:17.717Z,10.50
2017-11-12T13:13:20.189Z,13.13
2017-11-12T13:14:22.715Z,8.15
2017-11-12T13:15:25.203Z,9.50
2017-11-12T13:16:27.674Z,10.75
2017-11-12T13:17:30.922Z,8.88
2017-11-12T13:18:34.184Z,8.35
2017-11-12T13:19:36.669Z,12.23
2017-11-12T13:20:39.183Z,7.90
2017-11-12T13:21:41.651Z,10.65
2017-11-12T13:22:44.907Z,6.53
2017-11-12T13:23:47.376Z,9.85
2017-11-12T13:24:49.863Z,9.15
2017-11-12T13:25:52.367Z,7.70
2017-11-12T13:26:55.632Z,10.93
2017-11-12T13:27:58.130Z,8.18
2017-11-12T13:29:01.359Z,12.85
2017-11-12T13:30:04.655Z,6.57
2017-11-12T13:31:07.159Z,6.53
2017-11-12T13:32:09.632Z,7.57